createdAt,value
2022-08-27T00:01:53.884Z,97145.94
2022-08-27T00:04:20.480Z,97140.03
2022-08-27T00:06:48.398Z,97141.69
2022-08-27T00:09:15.031Z,97146.19
2022-08-27T00:11:42.451Z,97146.72
2022-08-27T00:14:08.970Z,97149.22
2022-08-27T00:16:35.520Z,97150.75
2022-08-27T00:19:02.055Z,97152.13
2022-08-27T00:21:28.696Z,97152.66
2022-08-27T00:23:56.536Z,97149.31
2022-08-27T00:26:23.107Z,97156.72
2022-08-27T00:28:49.651Z,97160.91
2022-08-27T00:31:16.753Z,97155.31
2022-08-27T00:33:44.410Z,97149.00
2022-08-27T00:36:12.608Z,97153.66
2022-08-27T00:38:39.652Z,97153.78
2022-08-27T00:41:10.690Z,97153.09
2022-08-27T00:43:48.949Z,97155.09
2022-08-27T00:46:22.885Z,97153.69
2022-08-27T00:48:51.945Z,97155.91
2022-08-27T00:51:18.487Z,97154.31
2022-08-27T00:53:45.006Z,97155.72
2022-08-27T00:56:17.651Z,97153.06
2022-08-27T00:58:46.240Z,97153.66
2022-08-27T01:01:15.760Z,97148.31
2022-08-27T01:03:46.097Z,97156.91
2022-08-27T01:06:16.109Z,97156.00
2022-08-27T01:08:46.204Z,97158.81
2022-08-27T01:11:14.165Z,97151.69
2022-08-27T01:13:44.145Z,97159.25
2022-08-27T01:16:33.544Z,97158.56
2022-08-27T01:19:00.644Z,97163.25
2022-08-27T01:21:34.077Z,97153.38
2022-08-27T01:24:07.008Z,97162.91
2022-08-27T01:26:35.212Z,97162.34
2022-08-27T01:29:01.746Z,97156.84
2022-08-27T01:31:28.332Z,97159.44
2022-08-27T01:33:58.390Z,97163.03
2022-08-27T01:36:25.723Z,97164.31
2022-08-27T01:38:52.250Z,97161.28
2022-08-27T01:41:19.982Z,97163.38
2022-08-27T01:43:49.163Z,97162.47
2022-08-27T01:46:20.094Z,97170.84
2022-08-27T01:48:46.643Z,97171.06
2022-08-27T01:51:13.150Z,97173.38
2022-08-27T01:53:39.697Z,97165.72
2022-08-27T01:56:06.442Z,97165.59
2022-08-27T01:58:33.243Z,97169.22
2022-08-27T02:01:04.398Z,97168.28
2022-08-27T02:03:31.411Z,97162.81
2022-08-27T02:05:58.060Z,97169.44
2022-08-27T02:08:24.789Z,97162.56
2022-08-27T02:10:51.582Z,97175.94
2022-08-27T02:13:18.285Z,97178.72
2022-08-27T02:15:45.417Z,97172.72
2022-08-27T02:18:13.964Z,97175.84
2022-08-27T02:20:41.121Z,97179.44
2022-08-27T02:23:08.394Z,97178.97
2022-08-27T02:25:35.059Z,97171.19
2022-08-27T02:28:01.923Z,97178.06
2022-08-27T02:30:30.305Z,97173.50
2022-08-27T02:32:56.818Z,97174.00
2022-08-27T02:35:24.921Z,97168.53
2022-08-27T02:37:51.687Z,97167.44
2022-08-27T02:40:21.108Z,97168.59
2022-08-27T02:42:48.038Z,97172.19
2022-08-27T02:45:16.485Z,97162.09
2022-08-27T02:47:43.348Z,97168.34
2022-08-27T02:50:10.705Z,97172.19
2022-08-27T02:52:38.579Z,97171.94
2022-08-27T02:55:06.180Z,97177.75
2022-08-27T02:57:36.342Z,97184.50
2022-08-27T03:00:05.184Z,97185.31
2022-08-27T03:02:31.831Z,97172.16
2022-08-27T03:04:58.460Z,97171.47
2022-08-27T03:07:24.960Z,97172.75
2022-08-27T03:09:52.872Z,97181.81
2022-08-27T03:12:19.914Z,97181.59
2022-08-27T03:14:49.346Z,97176.56
2022-08-27T03:17:16.187Z,97175.91
2022-08-27T03:19:42.797Z,97169.16
2022-08-27T03:22:09.504Z,97172.84
2022-08-27T03:24:36.170Z,97179.00
2022-08-27T03:27:04.698Z,97169.94
2022-08-27T03:29:31.241Z,97173.28
2022-08-27T03:32:03.221Z,97169.69
2022-08-27T03:34:29.781Z,97174.81
2022-08-27T03:36:56.310Z,97181.88
2022-08-27T03:39:22.852Z,97192.09
2022-08-27T03:41:54.968Z,97179.13
2022-08-27T03:44:23.885Z,97176.22
2022-08-27T03:46:51.121Z,97172.69
2022-08-27T03:49:20.435Z,97172.94
2022-08-27T03:51:47.477Z,97172.56
2022-08-27T03:54:14.007Z,97169.56
2022-08-27T03:56:40.549Z,97174.22
2022-08-27T03:59:07.115Z,97171.06
2022-08-27T04:01:35.122Z,97174.44
2022-08-27T04:04:01.801Z,97172.47
2022-08-27T04:06:28.367Z,97164.06
2022-08-27T04:08:54.905Z,97160.53
2022-08-27T04:11:21.455Z,97160.94
2022-08-27T04:13:48.021Z,97156.94
2022-08-27T04:16:14.634Z,97148.06
2022-08-27T04:18:42.832Z,97157.63
2022-08-27T04:21:11.200Z,97155.53
2022-08-27T04:23:37.781Z,97164.31
2022-08-27T04:26:05.233Z,97156.31
2022-08-27T04:28:35.259Z,97161.75
2022-08-27T04:31:05.053Z,97168.94
2022-08-27T04:33:31.655Z,97171.59
2022-08-27T04:36:00.536Z,97163.94
2022-08-27T04:38:27.565Z,97165.88
2022-08-27T04:40:54.119Z,97169.13
2022-08-27T04:43:21.168Z,97167.31
2022-08-27T04:45:48.850Z,97168.47
2022-08-27T04:48:17.329Z,97171.84
2022-08-27T04:50:46.309Z,97178.09
2022-08-27T04:53:16.222Z,97175.09
2022-08-27T04:55:45.894Z,97177.22
2022-08-27T04:58:13.686Z,97180.13
2022-08-27T05:00:44.218Z,97178.09
2022-08-27T05:03:11.196Z,97180.63
2022-08-27T05:05:37.951Z,97173.44
2022-08-27T05:08:09.788Z,97177.03
2022-08-27T05:10:42.224Z,97177.91
2022-08-27T05:13:09.218Z,97177.91
2022-08-27T05:15:36.136Z,97177.34
2022-08-27T05:18:03.377Z,97180.25
2022-08-27T05:20:31.580Z,97186.00
2022-08-27T05:22:58.649Z,97172.19
2022-08-27T05:25:27.041Z,97176.06
2022-08-27T05:27:54.927Z,97165.19
2022-08-27T05:30:21.455Z,97168.19
2022-08-27T05:32:47.995Z,97161.94
2022-08-27T05:35:15.828Z,97177.03
2022-08-27T05:37:42.470Z,97166.16
2022-08-27T05:40:10.294Z,97172.47
2022-08-27T05:42:36.843Z,97159.69
2022-08-27T05:45:05.773Z,97169.31
2022-08-27T05:47:32.314Z,97174.31
2022-08-27T05:50:04.167Z,97165.50
2022-08-27T05:52:32.369Z,97170.38
2022-08-27T05:54:58.926Z,97164.31
2022-08-27T05:57:25.459Z,97166.59
2022-08-27T05:59:52.219Z,97162.34
2022-08-27T06:02:20.155Z,97158.25
2022-08-27T06:04:47.020Z,97153.00
2022-08-27T06:07:13.602Z,97151.94
2022-08-27T06:09:40.124Z,97159.09
2022-08-27T06:12:08.016Z,97157.13
2022-08-27T06:14:35.716Z,97151.44
2022-08-27T06:17:02.747Z,97158.91
2022-08-27T06:19:30.667Z,97158.47
2022-08-27T06:22:00.865Z,97163.63
2022-08-27T06:24:37.236Z,97160.44
2022-08-27T06:27:03.925Z,97160.44
2022-08-27T06:29:30.563Z,97163.25
2022-08-27T06:31:57.151Z,97160.00
2022-08-27T06:34:23.669Z,97158.75
2022-08-27T06:36:51.603Z,97164.00
2022-08-27T06:39:18.134Z,97168.88
2022-08-27T06:41:44.986Z,97167.16
2022-08-27T06:44:12.943Z,97172.13
2022-08-27T06:46:39.948Z,97178.56
2022-08-27T06:49:07.103Z,97184.94
2022-08-27T06:51:35.942Z,97173.03
2022-08-27T06:54:06.506Z,97186.66
2022-08-27T06:56:33.389Z,97185.38
2022-08-27T06:59:02.159Z,97194.25
2022-08-27T07:01:31.237Z,97192.47
2022-08-27T07:03:59.370Z,97193.59
2022-08-27T07:06:27.496Z,97189.03
2022-08-27T07:08:54.561Z,97200.63
2022-08-27T07:11:22.851Z,97196.16
2022-08-27T07:13:49.757Z,97204.03
2022-08-27T07:16:19.996Z,97202.09
2022-08-27T07:18:49.665Z,97207.09
2022-08-27T07:21:16.749Z,97211.47
2022-08-27T07:23:43.282Z,97212.81
2022-08-27T07:26:11.662Z,97213.81
2022-08-27T07:28:42.679Z,97220.66
2022-08-27T07:31:12.285Z,97219.75
2022-08-27T07:33:40.276Z,97233.34
2022-08-27T07:36:12.849Z,97232.63
2022-08-27T07:38:39.442Z,97228.78
2022-08-27T07:41:06.615Z,97227.03
2022-08-27T07:43:33.482Z,97227.97
2022-08-27T07:46:02.866Z,97229.03
2022-08-27T07:48:29.469Z,97227.38
2022-08-27T07:50:56.015Z,97223.81
2022-08-27T07:53:22.565Z,97225.88
2022-08-27T07:55:49.151Z,97220.22
2022-08-27T07:58:18.540Z,97223.13
2022-08-27T08:00:45.688Z,97230.63
2022-08-27T08:03:13.612Z,97229.59
2022-08-27T08:05:42.113Z,97235.66
2022-08-27T08:08:08.678Z,97225.13
2022-08-27T08:10:35.674Z,97233.16
2022-08-27T08:13:02.796Z,97229.31
2022-08-27T08:15:29.528Z,97226.47
2022-08-27T08:17:56.063Z,97221.00
2022-08-27T08:20:35.884Z,97225.25
2022-08-27T08:23:10.778Z,97228.19
2022-08-27T08:25:38.537Z,97220.56
2022-08-27T08:28:05.427Z,97226.56
2022-08-27T08:30:35.456Z,97226.28
2022-08-27T08:33:02.229Z,97238.72
2022-08-27T08:35:34.180Z,97234.91
2022-08-27T08:38:07.436Z,97241.22
2022-08-27T08:40:36.312Z,97239.00
2022-08-27T08:43:05.932Z,97242.59
2022-08-27T08:45:36.209Z,97232.94
2022-08-27T08:48:06.265Z,97239.63
2022-08-27T08:50:44.321Z,97232.22
2022-08-27T08:53:19.441Z,97235.78
2022-08-27T08:55:51.348Z,97241.66
2022-08-27T08:58:26.064Z,97243.69
2022-08-27T09:00:57.221Z,97238.00
2022-08-27T09:03:24.167Z,97234.50
2022-08-27T09:05:58.310Z,97232.97
2022-08-27T09:08:37.757Z,97233.56
2022-08-27T09:11:13.807Z,97246.06
2022-08-27T09:13:43.418Z,97238.75
2022-08-27T09:16:10.188Z,97242.72
2022-08-27T09:18:39.598Z,97237.38
2022-08-27T09:21:18.261Z,97228.69
2022-08-27T09:24:03.537Z,97231.84
2022-08-27T09:26:34.316Z,97225.22
2022-08-27T09:29:06.380Z,97222.88
2022-08-27T09:31:36.837Z,97226.47
2022-08-27T09:34:04.874Z,97222.50
2022-08-27T09:36:32.856Z,97214.50
2022-08-27T09:39:01.176Z,97221.00
2022-08-27T09:41:30.741Z,97214.97
2022-08-27T09:44:00.279Z,97210.84
2022-08-27T09:46:27.946Z,97207.09
2022-08-27T09:48:56.232Z,97210.38
2022-08-27T09:51:25.851Z,97209.69
2022-08-27T09:53:56.437Z,97206.06
2022-08-27T09:56:29.170Z,97198.75
2022-08-27T09:59:02.495Z,97201.19
2022-08-27T10:01:31.302Z,97199.16
2022-08-27T10:04:07.981Z,97203.06
2022-08-27T10:06:34.839Z,97204.09
2022-08-27T10:09:09.180Z,97198.09
2022-08-27T10:11:39.084Z,97198.13
2022-08-27T10:14:08.697Z,97202.53
2022-08-27T10:16:50.485Z,97203.53
2022-08-27T10:19:28.310Z,97201.75
2022-08-27T10:22:00.027Z,97202.19
2022-08-27T10:24:38.427Z,97210.91
2022-08-27T10:27:16.511Z,97207.94
2022-08-27T10:29:49.941Z,97210.28
2022-08-27T10:32:30.072Z,97208.09
2022-08-27T10:35:08.171Z,97207.19
2022-08-27T10:37:45.510Z,97202.53
2022-08-27T10:40:18.084Z,97199.69
2022-08-27T10:42:57.650Z,97206.06
2022-08-27T10:45:37.757Z,97208.72
2022-08-27T10:48:15.420Z,97219.50
2022-08-27T10:50:48.673Z,97223.69
2022-08-27T10:53:26.138Z,97221.53
2022-08-27T10:56:03.493Z,97217.22
2022-08-27T10:58:53.196Z,97223.31
2022-08-27T11:01:25.938Z,97213.81
2022-08-27T11:03:59.426Z,97216.72
2022-08-27T11:06:30.435Z,97219.44
2022-08-27T11:09:07.492Z,97222.75
2022-08-27T11:14:31.488Z,97220.78
2022-08-27T11:17:05.251Z,97219.53
2022-08-27T11:19:44.078Z,97212.41
2022-08-27T11:22:23.718Z,97217.09
2022-08-27T11:24:57.213Z,97208.03
2022-08-27T11:27:28.767Z,97208.50
2022-08-27T11:30:00.056Z,97205.47
2022-08-27T11:32:35.493Z,97214.16
2022-08-27T11:35:08.166Z,97216.38
2022-08-27T11:37:50.604Z,97205.63
2022-08-27T11:40:35.087Z,97213.03
2022-08-27T11:43:05.927Z,97208.66
2022-08-27T11:45:35.023Z,97210.28
2022-08-27T11:48:14.408Z,97214.34
2022-08-27T11:50:41.029Z,97213.16
2022-08-27T11:53:08.456Z,97210.06
2022-08-27T11:55:37.639Z,97209.09
2022-08-27T11:58:09.752Z,97207.59
2022-08-27T12:00:39.071Z,97209.88
2022-08-27T12:03:07.771Z,97209.28
2022-08-27T12:05:39.354Z,97210.56
2022-08-27T12:08:18.836Z,97207.66
2022-08-27T12:11:03.448Z,97208.28
2022-08-27T12:13:37.639Z,97211.09
2022-08-27T12:16:20.867Z,97207.78
2022-08-27T12:18:56.967Z,97213.31
2022-08-27T12:21:41.957Z,97220.19
2022-08-27T12:24:40.827Z,97217.84
2022-08-27T12:27:26.285Z,97216.66
2022-08-27T12:29:56.691Z,97218.47
2022-08-27T12:32:29.511Z,97209.63
2022-08-27T12:35:04.007Z,97206.34
2022-08-27T12:37:34.592Z,97202.09
2022-08-27T12:40:08.586Z,97199.91
2022-08-27T12:42:35.187Z,97189.31
2022-08-27T12:45:04.157Z,97190.72
2022-08-27T12:47:39.082Z,97193.03
2022-08-27T12:50:11.840Z,97193.34
2022-08-27T12:52:51.850Z,97181.59
2022-08-27T12:55:28.855Z,97184.31
2022-08-27T12:58:06.241Z,97182.81
2022-08-27T13:00:47.423Z,97183.81
2022-08-27T13:03:24.286Z,97177.16
2022-08-27T13:05:51.076Z,97178.94
2022-08-27T13:08:22.576Z,97187.84
2022-08-27T13:10:49.955Z,97181.69
2022-08-27T13:13:19.145Z,97183.09
2022-08-27T13:15:50.177Z,97172.75
2022-08-27T13:18:17.607Z,97184.16
2022-08-27T13:20:52.626Z,97178.31
2022-08-27T13:23:22.214Z,97181.09
2022-08-27T13:25:57.727Z,97178.31
2022-08-27T13:28:27.102Z,97183.03
2022-08-27T13:30:55.959Z,97179.25
2022-08-27T13:33:25.265Z,97179.16
2022-08-27T13:35:51.982Z,97179.91
2022-08-27T13:38:20.581Z,97173.16
2022-08-27T13:40:57.886Z,97179.84
2022-08-27T13:43:33.259Z,97172.28
2022-08-27T13:46:04.863Z,97171.41
2022-08-27T13:48:32.281Z,97170.72
2022-08-27T13:50:58.892Z,97166.13
2022-08-27T13:53:28.501Z,97163.28
2022-08-27T13:55:56.814Z,97157.22
2022-08-27T13:58:25.785Z,97154.13
2022-08-27T14:00:52.446Z,97155.69
2022-08-27T14:03:26.398Z,97154.22
2022-08-27T14:05:53.305Z,97151.13
2022-08-27T14:08:20.063Z,97148.81
2022-08-27T14:10:49.343Z,97158.44
2022-08-27T14:13:22.594Z,97155.91
2022-08-27T14:15:50.928Z,97152.78
2022-08-27T14:18:42.195Z,97155.97
2022-08-27T14:21:12.231Z,97151.38
2022-08-27T14:23:38.750Z,97159.94
2022-08-27T14:26:05.674Z,97154.97
2022-08-27T14:28:32.193Z,97162.31
2022-08-27T14:30:58.837Z,97161.50
2022-08-27T14:33:26.951Z,97161.88
2022-08-27T14:35:53.557Z,97153.03
2022-08-27T14:38:22.268Z,97156.66
2022-08-27T14:40:52.046Z,97163.72
2022-08-27T14:43:19.536Z,97152.69
2022-08-27T14:45:47.315Z,97148.56
2022-08-27T14:48:18.428Z,97150.66
2022-08-27T14:50:47.651Z,97151.53
2022-08-27T14:53:14.488Z,97151.78
2022-08-27T14:55:41.025Z,97161.50
2022-08-27T14:58:11.502Z,97150.25
2022-08-27T15:00:38.204Z,97154.97
2022-08-27T15:03:04.722Z,97150.66
2022-08-27T15:05:31.264Z,97144.97
2022-08-27T15:07:59.719Z,97144.25
2022-08-27T15:10:26.261Z,97149.84
2022-08-27T15:12:52.972Z,97146.28
2022-08-27T15:15:19.732Z,97145.50
2022-08-27T15:17:46.275Z,97141.94
2022-08-27T15:20:19.970Z,97145.53
2022-08-27T15:22:48.710Z,97140.78
2022-08-27T15:25:16.880Z,97141.88
2022-08-27T15:27:43.381Z,97140.78
2022-08-27T15:30:13.922Z,97133.50
2022-08-27T15:32:42.590Z,97138.38
2022-08-27T15:35:13.983Z,97135.16
2022-08-27T15:37:40.755Z,97134.47
2022-08-27T15:40:09.168Z,97133.63
2022-08-27T15:42:37.180Z,97139.28
2022-08-27T15:45:05.162Z,97138.91
2022-08-27T15:47:31.709Z,97137.28
2022-08-27T15:49:58.404Z,97136.06
2022-08-27T15:52:25.496Z,97136.03
2022-08-27T15:55:14.661Z,97136.69
2022-08-27T15:57:42.533Z,97136.66
2022-08-27T16:00:10.459Z,97143.16
2022-08-27T16:02:37.096Z,97144.63
2022-08-27T16:05:04.175Z,97139.41
2022-08-27T16:07:30.705Z,97145.34
2022-08-27T16:09:57.291Z,97144.53
2022-08-27T16:12:27.295Z,97147.28
2022-08-27T16:14:55.848Z,97145.66
2022-08-27T16:17:23.397Z,97148.94
2022-08-27T16:19:49.936Z,97149.25
2022-08-27T16:22:16.558Z,97142.84
2022-08-27T16:24:43.347Z,97145.91
2022-08-27T16:27:09.993Z,97153.31
2022-08-27T16:29:36.500Z,97149.72
2022-08-27T16:32:05.068Z,97145.34
2022-08-27T16:34:31.986Z,97144.94
2022-08-27T16:36:58.518Z,97148.91
2022-08-27T16:39:27.362Z,97153.28
2022-08-27T16:41:58.654Z,97156.72
2022-08-27T16:44:25.210Z,97157.53
2022-08-27T16:46:51.813Z,97163.41
2022-08-27T16:49:19.701Z,97162.63
2022-08-27T16:51:46.277Z,97159.56
2022-08-27T16:54:14.437Z,97162.31
2022-08-27T16:56:41.000Z,97161.38
2022-08-27T16:59:07.673Z,97160.84
2022-08-27T17:01:34.353Z,97161.72
2022-08-27T17:04:15.393Z,97166.13
2022-08-27T17:06:46.186Z,97163.06
2022-08-27T17:09:13.246Z,97160.50
2022-08-27T17:11:41.929Z,97171.38
2022-08-27T17:14:10.008Z,97172.41
2022-08-27T17:16:37.839Z,97180.97
2022-08-27T17:19:05.628Z,97179.19
2022-08-27T17:21:33.870Z,97183.06
2022-08-27T17:24:01.978Z,97184.38
2022-08-27T17:26:29.441Z,97185.34
2022-08-27T17:28:56.027Z,97192.53
2022-08-27T17:31:27.893Z,97195.03
2022-08-27T17:33:59.171Z,97198.97
2022-08-27T17:36:28.465Z,97204.03
2022-08-27T17:38:55.574Z,97206.06
2022-08-27T17:41:28.710Z,97200.34
2022-08-27T17:44:01.011Z,97202.63
2022-08-27T17:46:28.068Z,97208.94
2022-08-27T17:48:54.798Z,97199.25
2022-08-27T17:51:21.780Z,97199.72
2022-08-27T17:53:50.632Z,97198.75
2022-08-27T17:56:20.425Z,97212.56
2022-08-27T17:58:49.914Z,97220.09
2022-08-27T18:01:22.456Z,97216.84
2022-08-27T18:03:55.307Z,97219.75
2022-08-27T18:06:21.848Z,97220.84
2022-08-27T18:08:48.379Z,97221.94
2022-08-27T18:11:17.153Z,97223.34
2022-08-27T18:13:44.841Z,97225.28
2022-08-27T18:16:12.737Z,97229.97
2022-08-27T18:18:41.269Z,97243.13
2022-08-27T18:21:08.901Z,97237.88
2022-08-27T18:23:36.708Z,97239.41
2022-08-27T18:26:13.775Z,97242.22
2022-08-27T18:28:42.061Z,97247.34
2022-08-27T18:31:08.753Z,97248.53
2022-08-27T18:33:36.981Z,97247.28
2022-08-27T18:36:04.689Z,97248.75
2022-08-27T18:38:31.220Z,97252.81
2022-08-27T18:40:58.367Z,97261.22
2022-08-27T18:43:28.522Z,97250.75
2022-08-27T18:45:55.181Z,97260.59
2022-08-27T18:48:22.279Z,97258.94
2022-08-27T18:50:53.001Z,97259.84
2022-08-27T18:53:20.065Z,97266.00
2022-08-27T18:55:47.953Z,97271.25
2022-08-27T18:58:14.793Z,97259.88
2022-08-27T19:00:44.176Z,97261.41
2022-08-27T19:03:14.449Z,97269.81
2022-08-27T19:05:40.974Z,97266.88
2022-08-27T19:08:11.192Z,97273.63
2022-08-27T19:10:37.879Z,97283.13
2022-08-27T19:13:04.433Z,97286.09
2022-08-27T19:15:30.988Z,97297.03
2022-08-27T19:17:58.749Z,97297.31
2022-08-27T19:20:25.637Z,97307.69
2022-08-27T19:22:52.172Z,97303.63
2022-08-27T19:25:20.310Z,97304.78
2022-08-27T19:27:47.456Z,97306.53
2022-08-27T19:30:16.046Z,97302.38
2022-08-27T19:32:42.640Z,97304.63
2022-08-27T19:35:09.817Z,97304.53
2022-08-27T19:37:41.611Z,97307.69
2022-08-27T19:40:11.299Z,97309.31
2022-08-27T19:42:40.705Z,97306.06
2022-08-27T19:45:08.193Z,97306.16
2022-08-27T19:47:36.585Z,97302.81
2022-08-27T19:50:03.700Z,97312.09
2022-08-27T19:52:30.258Z,97301.63
2022-08-27T19:55:13.166Z,97298.28
2022-08-27T19:57:42.232Z,97296.59
2022-08-27T20:00:10.668Z,97305.69
2022-08-27T20:02:37.369Z,97299.66
2022-08-27T20:05:17.929Z,97305.97
2022-08-27T20:07:45.535Z,97300.38
2022-08-27T20:10:12.446Z,97295.13
2022-08-27T20:12:38.997Z,97296.38
2022-08-27T20:15:07.721Z,97305.97
2022-08-27T20:17:34.395Z,97297.47
2022-08-27T20:20:01.237Z,97298.88
2022-08-27T20:22:28.102Z,97303.94
2022-08-27T20:24:54.647Z,97297.53
2022-08-27T20:27:21.205Z,97296.94
2022-08-27T20:29:48.153Z,97293.34
2022-08-27T20:32:16.046Z,97295.41
2022-08-27T20:34:42.603Z,97286.69
2022-08-27T20:37:09.197Z,97294.00
2022-08-27T20:39:35.785Z,97288.22
2022-08-27T20:42:02.392Z,97291.94
2022-08-27T20:44:28.954Z,97289.53
2022-08-27T20:46:59.475Z,97293.16
2022-08-27T20:49:27.631Z,97297.50
2022-08-27T20:52:02.753Z,97292.94
2022-08-27T20:54:31.165Z,97292.25
2022-08-27T20:56:58.505Z,97290.72
2022-08-27T20:59:25.189Z,97292.16
2022-08-27T21:01:51.752Z,97296.22
2022-08-27T21:04:18.301Z,97297.03
2022-08-27T21:06:46.166Z,97297.75
2022-08-27T21:09:12.717Z,97300.28
2022-08-27T21:11:39.243Z,97290.53
2022-08-27T21:14:05.786Z,97291.28
2022-08-27T21:16:32.956Z,97289.28
2022-08-27T21:18:59.540Z,97290.63
2022-08-27T21:21:26.073Z,97291.34
2022-08-27T21:23:53.965Z,97294.94
2022-08-27T21:26:20.495Z,97290.38
2022-08-27T21:28:47.029Z,97294.88
2022-08-27T21:31:13.584Z,97289.59
2022-08-27T21:33:40.594Z,97293.47
2022-08-27T21:36:11.806Z,97295.66
2022-08-27T21:38:38.642Z,97291.69
2022-08-27T21:41:07.048Z,97291.44
2022-08-27T21:43:33.614Z,97285.66
2022-08-27T21:46:00.172Z,97283.69
2022-08-27T21:48:26.860Z,97283.94
2022-08-27T21:50:54.056Z,97280.78
2022-08-27T21:53:20.662Z,97285.84
2022-08-27T21:55:47.674Z,97293.88
2022-08-27T21:58:15.564Z,97289.97
2022-08-27T22:00:44.774Z,97295.19
2022-08-27T22:03:13.117Z,97301.00
2022-08-27T22:05:41.885Z,97294.94
2022-08-27T22:08:09.349Z,97299.00
2022-08-27T22:10:36.266Z,97303.31
2022-08-27T22:13:03.385Z,97305.75
2022-08-27T22:15:31.935Z,97298.19
2022-08-27T22:17:58.928Z,97300.63
2022-08-27T22:20:26.031Z,97300.28
2022-08-27T22:22:52.599Z,97301.19
2022-08-27T22:25:19.459Z,97314.97
2022-08-27T22:27:46.192Z,97309.25
2022-08-27T22:30:13.581Z,97307.09
2022-08-27T22:32:42.113Z,97317.81
2022-08-27T22:35:09.960Z,97313.50
2022-08-27T22:37:36.785Z,97314.75
2022-08-27T22:40:04.978Z,97310.91
2022-08-27T22:42:31.548Z,97317.41
2022-08-27T22:44:58.113Z,97319.03
2022-08-27T22:47:24.709Z,97321.13
2022-08-27T22:49:52.877Z,97316.69
2022-08-27T22:52:19.649Z,97319.13
2022-08-27T22:54:49.797Z,97317.63
2022-08-27T22:57:21.245Z,97316.25
2022-08-27T22:59:47.790Z,97317.16
2022-08-27T23:02:14.469Z,97313.56
2022-08-27T23:04:54.601Z,97315.16
2022-08-27T23:07:23.726Z,97315.97
2022-08-27T23:09:50.622Z,97315.97
2022-08-27T23:12:17.201Z,97310.28
2022-08-27T23:14:43.762Z,97314.59
2022-08-27T23:17:10.389Z,97312.63
2022-08-27T23:19:36.924Z,97308.66
2022-08-27T23:22:07.256Z,97309.56
2022-08-27T23:24:35.556Z,97304.69
2022-08-27T23:27:02.104Z,97301.91
2022-08-27T23:29:28.654Z,97304.69
2022-08-27T23:31:55.397Z,97300.16
2022-08-27T23:34:22.718Z,97302.16
2022-08-27T23:36:49.494Z,97298.53
2022-08-27T23:39:16.339Z,97300.16
2022-08-27T23:41:44.254Z,97300.06
2022-08-27T23:44:11.380Z,97295.84
2022-08-27T23:46:38.014Z,97295.41
2022-08-27T23:49:05.196Z,97304.94
2022-08-27T23:51:32.488Z,97309.47
2022-08-27T23:53:59.048Z,97295.84
2022-08-27T23:56:28.110Z,97313.56
2022-08-27T23:58:58.121Z,97305.16
